createdAt,value
2017-06-20T00:00:34.513Z,21.82
2017-06-20T00:01:44.855Z,21.85
2017-06-20T00:02:54.933Z,21.94
2017-06-20T00:04:05.271Z,21.82
2017-06-20T00:05:15.308Z,21.83
2017-06-20T00:06:25.654Z,21.68
2017-06-20T00:07:36.064Z,21.68
2017-06-20T00:08:46.166Z,21.76
2017-06-20T00:09:56.508Z,21.74
2017-06-20T00:11:06.859Z,21.71
2017-06-20T00:12:17.210Z,21.74
2017-06-20T00:13:27.560Z,21.74
2017-06-20T00:14:37.960Z,21.78
2017-06-20T00:15:48.313Z,21.8
2017-06-20T00:16:58.675Z,21.76
2017-06-20T00:18:08.716Z,21.74
2017-06-20T00:19:19.073Z,21.71
2017-06-20T00:20:29.150Z,21.67
2017-06-20T00:21:39.191Z,21.73
2017-06-20T00:22:49.234Z,21.64
2017-06-20T00:23:59.579Z,21.61
2017-06-20T00:25:09.631Z,21.58
2017-06-20T00:26:20.022Z,21.62
2017-06-20T00:27:29.740Z,21.64
2017-06-20T00:28:40.096Z,21.58
2017-06-20T00:29:50.447Z,21.58
2017-06-20T00:31:00.795Z,21.52
2017-06-20T00:32:10.825Z,21.55
2017-06-20T00:33:21.174Z,21.56
2017-06-20T00:34:30.890Z,21.53
2017-06-20T00:35:41.238Z,21.51
2017-06-20T00:36:51.585Z,21.49
2017-06-20T00:38:01.618Z,21.51
2017-06-20T00:39:11.958Z,21.53
2017-06-20T00:40:22.303Z,21.55
2017-06-20T00:41:32.647Z,21.52
2017-06-20T00:42:42.695Z,21.52
2017-06-20T00:43:53.104Z,21.52
2017-06-20T00:45:03.451Z,21.55
2017-06-20T00:46:13.801Z,21.49
2017-06-20T00:47:24.150Z,21.41
2017-06-20T00:48:34.499Z,21.37
2017-06-20T00:49:44.574Z,21.49
2017-06-20T00:50:54.609Z,21.4
2017-06-20T00:52:04.952Z,21.43
2017-06-20T00:53:15.313Z,21.38
2017-06-20T00:54:25.655Z,21.41
2017-06-20T00:55:36.047Z,21.4
2017-06-20T00:56:46.395Z,21.36
2017-06-20T00:57:56.423Z,21.37
2017-06-20T00:59:06.771Z,21.38
2017-06-20T01:00:17.111Z,21.43
2017-06-20T01:01:27.200Z,21.37
2017-06-20T01:02:37.587Z,21.43
2017-06-20T01:03:47.618Z,21.4
2017-06-20T01:04:57.955Z,21.37
2017-06-20T01:06:07.681Z,21.4
2017-06-20T01:07:18.082Z,21.36
2017-06-20T01:08:28.445Z,21.3
2017-06-20T01:09:38.495Z,21.36
2017-06-20T01:10:48.849Z,21.25
2017-06-20T01:11:59.196Z,21.22
2017-06-20T01:13:09.284Z,21.22
2017-06-20T01:14:19.616Z,21.18
2017-06-20T01:15:29.963Z,21.23
2017-06-20T01:16:40.302Z,21.19
2017-06-20T01:17:50.657Z,21.19
2017-06-20T01:19:01.013Z,21.22
2017-06-20T01:20:10.732Z,21.12
2017-06-20T01:21:20.458Z,21.13
2017-06-20T01:22:30.795Z,21.08
2017-06-20T01:23:40.834Z,21.03
2017-06-20T01:24:51.232Z,20.94
2017-06-20T01:26:01.592Z,20.98
2017-06-20T01:27:11.943Z,20.93
2017-06-20T01:28:22.291Z,20.91
2017-06-20T01:29:32.634Z,20.86
2017-06-20T01:30:42.743Z,20.86
2017-06-20T01:31:53.088Z,20.91
2017-06-20T01:33:03.438Z,20.81
2017-06-20T01:34:13.154Z,20.76
2017-06-20T01:35:23.184Z,20.79
2017-06-20T01:36:32.958Z,20.79
2017-06-20T01:37:43.000Z,20.83
2017-06-20T01:38:53.038Z,20.76
2017-06-20T01:40:03.090Z,20.82
2017-06-20T01:41:13.436Z,20.85
2017-06-20T01:42:23.518Z,20.83
2017-06-20T01:43:33.573Z,20.72
2017-06-20T01:44:43.921Z,20.75
2017-06-20T01:45:54.276Z,20.75
2017-06-20T01:47:04.624Z,20.68
2017-06-20T01:48:14.984Z,20.76
2017-06-20T01:49:25.328Z,20.75
2017-06-20T01:50:35.666Z,20.82
2017-06-20T01:51:46.008Z,20.75
2017-06-20T01:52:56.348Z,20.75
2017-06-20T01:54:06.421Z,20.72
2017-06-20T01:55:16.761Z,20.71
2017-06-20T01:56:26.485Z,20.68
2017-06-20T01:57:36.511Z,20.6
2017-06-20T01:58:46.857Z,20.68
2017-06-20T01:59:56.625Z,20.74
2017-06-20T02:01:06.657Z,20.75
2017-06-20T02:02:17.006Z,20.66
2017-06-20T02:03:27.363Z,20.66
2017-06-20T02:04:37.724Z,20.58
2017-06-20T02:05:48.132Z,20.63
2017-06-20T02:06:58.487Z,20.56
2017-06-20T02:08:08.836Z,20.41
2017-06-20T02:09:19.182Z,20.51
2017-06-20T02:10:29.220Z,20.49
2017-06-20T02:11:39.308Z,20.48
2017-06-20T02:12:49.653Z,20.42
2017-06-20T02:13:59.684Z,20.38
2017-06-20T02:15:10.053Z,20.25
2017-06-20T02:16:20.393Z,20.3
2017-06-20T02:17:30.464Z,20.27
2017-06-20T02:18:40.797Z,20.25
2017-06-20T02:19:51.136Z,20.22
2017-06-20T02:21:01.487Z,20.18
2017-06-20T02:22:11.211Z,20.22
2017-06-20T02:23:21.253Z,20.11
2017-06-20T02:24:31.622Z,20.19
2017-06-20T02:25:41.981Z,20.2
2017-06-20T02:26:52.337Z,20.23
2017-06-20T02:28:02.687Z,20.22
2017-06-20T02:29:13.079Z,20.18
2017-06-20T02:30:23.411Z,20.19
2017-06-20T02:31:33.763Z,20.25
2017-06-20T02:32:44.118Z,20.19
2017-06-20T02:33:54.479Z,20.11
2017-06-20T02:35:04.573Z,20.15
2017-06-20T02:36:14.918Z,20.16
2017-06-20T02:37:25.269Z,20.12
2017-06-20T02:38:35.307Z,20.16
2017-06-20T02:39:45.663Z,20.19
2017-06-20T02:40:56.061Z,20.18
2017-06-20T02:42:06.415Z,20.26
2017-06-20T02:43:16.769Z,20.2
2017-06-20T02:44:27.114Z,20.19
2017-06-20T02:45:37.467Z,20.2
2017-06-20T02:46:47.860Z,20.18
2017-06-20T02:47:58.202Z,20.26
2017-06-20T02:49:08.544Z,20.19
2017-06-20T02:50:18.900Z,20.18
2017-06-20T02:51:28.923Z,20.22
2017-06-20T02:52:38.690Z,20.23
2017-06-20T02:53:49.015Z,20.3
2017-06-20T02:54:59.350Z,20.2
2017-06-20T02:56:09.702Z,20.27
2017-06-20T02:57:19.721Z,20.27
2017-06-20T02:58:30.112Z,20.22
2017-06-20T02:59:40.151Z,20.2
2017-06-20T03:00:50.489Z,20.25
2017-06-20T03:32:46.430Z,17.32
2017-06-20T03:33:56.450Z,17.31
2017-06-20T03:35:06.788Z,17.31
2017-06-20T03:36:17.127Z,17.25
2017-06-20T03:37:27.523Z,17.4
2017-06-20T03:38:37.915Z,17.52
2017-06-20T03:39:47.940Z,17.65
2017-06-20T03:40:58.265Z,17.81
2017-06-20T03:42:08.609Z,17.94
2017-06-20T03:43:18.939Z,18.1
2017-06-20T03:44:29.275Z,18.17
2017-06-20T03:45:39.624Z,18.38
2017-06-20T03:46:49.652Z,18.54
2017-06-20T03:47:59.987Z,18.68
2017-06-20T03:49:10.329Z,18.81
2017-06-20T03:50:20.675Z,19.07
2017-06-20T03:51:31.029Z,19.32
2017-06-20T03:52:41.383Z,19.63
2017-06-20T03:53:51.746Z,20
2017-06-20T03:55:02.098Z,20.05
2017-06-20T03:56:12.174Z,20.02
2017-06-20T03:57:22.212Z,19.93
2017-06-20T03:58:32.564Z,20.15
2017-06-20T03:59:42.599Z,20.01
2017-06-20T04:00:52.934Z,20.1
2017-06-20T04:02:03.352Z,20.18
2017-06-20T04:03:13.704Z,20.26
2017-06-20T04:04:24.048Z,20.35
2017-06-20T04:05:34.397Z,20.48
2017-06-20T04:06:44.747Z,20.48
2017-06-20T04:07:55.095Z,20.54
2017-06-20T04:09:05.440Z,20.66
2017-06-20T04:10:15.794Z,20.72
2017-06-20T04:11:26.141Z,20.72
2017-06-20T04:12:36.488Z,20.88
2017-06-20T04:13:46.894Z,20.96
2017-06-20T04:14:57.238Z,21.06
2017-06-20T04:16:07.590Z,21.08
2017-06-20T04:17:17.954Z,21.21
2017-06-20T04:18:28.005Z,21.67
2017-06-20T04:19:38.090Z,23.72
2017-06-20T04:20:48.412Z,26.01
2017-06-20T04:21:58.759Z,27.59
2017-06-20T04:23:09.110Z,28.91
2017-06-20T04:24:19.459Z,29.89
2017-06-20T04:25:29.539Z,30.75
2017-06-20T04:26:39.576Z,31.41
2017-06-20T04:27:49.927Z,32.09
2017-06-20T04:29:00.280Z,32.64
2017-06-20T04:30:10.613Z,33.18
2017-06-20T04:31:20.972Z,33.73
2017-06-20T04:32:31.323Z,34
2017-06-20T04:33:41.674Z,34.36
2017-06-20T04:34:52.032Z,34.72
2017-06-20T04:36:01.752Z,34.97
2017-06-20T04:37:11.861Z,35.18
2017-06-20T04:38:22.206Z,35.43
2017-06-20T04:39:32.570Z,35.64
2017-06-20T04:40:42.922Z,35.84
2017-06-20T04:41:53.267Z,36.05
2017-06-20T04:43:03.348Z,36.32
2017-06-20T04:44:13.705Z,36.56
2017-06-20T04:45:24.035Z,36.67
2017-06-20T04:46:34.371Z,36.83
2017-06-20T04:47:44.736Z,37.05
2017-06-20T04:48:55.135Z,37.24
2017-06-20T04:50:05.477Z,37.36
2017-06-20T04:51:15.532Z,37.49
2017-06-20T04:52:25.878Z,37.62
2017-06-20T04:53:36.232Z,37.66
2017-06-20T04:54:46.282Z,37.66
2017-06-20T04:55:56.629Z,37.81
2017-06-20T04:57:06.668Z,37.91
2017-06-20T04:58:17.014Z,37.96
2017-06-20T04:59:27.372Z,38.12
2017-06-20T05:00:37.800Z,38.12
2017-06-20T05:01:48.155Z,38.18
2017-06-20T05:02:58.506Z,38.22
2017-06-20T05:04:08.539Z,38.22
2017-06-20T05:05:18.570Z,38.24
2017-06-20T05:06:28.983Z,38.36
2017-06-20T05:07:39.021Z,38.37
2017-06-20T05:08:49.382Z,38.3
2017-06-20T05:09:59.427Z,38.43
2017-06-20T05:11:09.469Z,38.46
2017-06-20T05:12:19.879Z,38.49
2017-06-20T05:13:30.247Z,38.52
2017-06-20T05:14:40.609Z,38.59
2017-06-20T05:15:50.955Z,38.59
2017-06-20T05:17:00.992Z,38.56
2017-06-20T05:18:11.095Z,38.55
2017-06-20T05:19:21.439Z,38.64
2017-06-20T05:20:31.786Z,38.58
2017-06-20T05:21:42.154Z,38.7
2017-06-20T05:22:52.503Z,38.59
2017-06-20T05:24:02.899Z,38.5
2017-06-20T05:25:12.957Z,38.44
2017-06-20T05:26:22.996Z,38.5
2017-06-20T05:27:33.364Z,38.52
2017-06-20T05:28:43.733Z,38.46
2017-06-20T05:29:53.824Z,38.49
2017-06-20T05:31:03.873Z,38.44
2017-06-20T05:32:13.925Z,38.4
2017-06-20T05:33:23.986Z,38.39
2017-06-20T05:34:34.012Z,38.33
2017-06-20T05:35:44.415Z,38.27
2017-06-20T05:36:54.776Z,38.15
2017-06-20T05:38:05.130Z,38.12
2017-06-20T05:39:15.500Z,37.87
2017-06-20T05:40:25.879Z,37.91
2017-06-20T05:41:35.941Z,37.76
2017-06-20T05:42:46.298Z,37.8
2017-06-20T05:43:56.649Z,37.69
2017-06-20T05:45:07.000Z,37.59
2017-06-20T05:46:17.367Z,37.53
2017-06-20T05:47:27.467Z,37.45
2017-06-20T05:48:37.845Z,37.34
2017-06-20T05:49:48.182Z,37.27
2017-06-20T05:50:58.538Z,37.15
2017-06-20T05:52:08.888Z,37.18
2017-06-20T05:53:18.982Z,37.19
2017-06-20T05:54:29.333Z,37.09
2017-06-20T05:55:39.369Z,36.88
2017-06-20T05:56:49.746Z,36.8
2017-06-20T05:58:00.124Z,36.65
2017-06-20T05:59:10.211Z,36.44
2017-06-20T06:00:20.253Z,36.3
2017-06-20T06:01:30.606Z,36.18
2017-06-20T06:02:40.959Z,36.06
2017-06-20T06:03:51.321Z,36.09
2017-06-20T06:05:01.731Z,35.99
2017-06-20T06:06:12.080Z,35.89
2017-06-20T06:07:22.425Z,35.86
2017-06-20T06:08:32.448Z,35.72
2017-06-20T06:09:42.820Z,35.65
2017-06-20T06:10:53.249Z,35.55
2017-06-20T06:12:02.979Z,35.38
2017-06-20T06:13:13.346Z,35.35
2017-06-20T06:14:23.698Z,35.24
2017-06-20T06:15:34.034Z,35.13
2017-06-20T06:16:44.388Z,35.15
2017-06-20T06:17:54.739Z,34.99
2017-06-20T06:19:05.101Z,34.81
2017-06-20T06:20:15.137Z,34.78
2017-06-20T06:21:25.503Z,34.71
2017-06-20T06:22:35.859Z,34.54
2017-06-20T06:23:46.206Z,34.41
2017-06-20T06:24:56.561Z,34.19
2017-06-20T06:26:06.922Z,34.15
2017-06-20T06:27:16.981Z,34.06
2017-06-20T06:28:27.077Z,34.05
2017-06-20T06:29:37.430Z,34
2017-06-20T06:30:47.798Z,34.02
2017-06-20T06:31:58.157Z,33.92
2017-06-20T06:33:08.504Z,33.9
2017-06-20T06:34:18.600Z,33.77
2017-06-20T06:35:28.635Z,33.63
2017-06-20T06:36:38.687Z,33.52
2017-06-20T06:37:49.057Z,33.44
2017-06-20T06:38:59.426Z,33.34
2017-06-20T06:40:10.018Z,33.16
2017-06-20T06:41:20.368Z,33.2
2017-06-20T06:42:30.715Z,33.05
2017-06-20T06:43:40.439Z,32.84
2017-06-20T06:44:50.810Z,32.8
2017-06-20T06:46:00.908Z,32.64
2017-06-20T06:47:10.939Z,32.62
2017-06-20T06:48:21.295Z,32.52
2017-06-20T06:49:31.341Z,32.43
2017-06-20T06:50:41.080Z,32.38
2017-06-20T06:51:50.849Z,32.24
2017-06-20T06:53:00.592Z,32.19
2017-06-20T06:54:10.949Z,32.09
2017-06-20T06:55:20.993Z,32.05
2017-06-20T06:56:31.353Z,31.95
2017-06-20T06:57:41.758Z,31.86
2017-06-20T06:58:51.786Z,31.8
2017-06-20T07:00:02.149Z,31.77
2017-06-20T07:01:12.505Z,31.63
2017-06-20T07:02:22.856Z,31.56
2017-06-20T07:03:32.952Z,31.52
2017-06-20T07:04:43.315Z,31.49
2017-06-20T07:05:53.676Z,31.45
2017-06-20T07:07:04.033Z,31.45
2017-06-20T07:08:14.067Z,31.38
2017-06-20T07:09:23.848Z,31.37
2017-06-20T07:10:34.234Z,31.31
2017-06-20T07:11:44.587Z,31.33
2017-06-20T07:12:54.964Z,31.41
2017-06-20T07:14:05.002Z,31.37
2017-06-20T07:15:15.402Z,31.37
2017-06-20T07:16:25.802Z,31.41
2017-06-20T07:17:36.154Z,31.28
2017-06-20T07:18:46.527Z,31.18
2017-06-20T07:19:56.895Z,31.23
2017-06-20T07:21:06.670Z,31.13
2017-06-20T07:22:16.976Z,31.18
2017-06-20T07:23:27.943Z,31.16
2017-06-20T07:24:38.311Z,31.01
2017-06-20T07:25:48.381Z,31.03
2017-06-20T07:26:58.854Z,31.01
2017-06-20T07:28:09.210Z,31.01
2017-06-20T07:29:19.598Z,30.89
2017-06-20T07:30:29.642Z,30.82
2017-06-20T07:31:40.036Z,30.77
2017-06-20T07:32:50.185Z,30.71
2017-06-20T07:34:00.568Z,30.71
2017-06-20T07:35:10.825Z,30.77
2017-06-20T07:36:21.211Z,30.75
2017-06-20T07:37:31.624Z,30.75
2017-06-20T07:38:42.069Z,30.77
2017-06-20T07:39:53.088Z,30.77
2017-06-20T07:41:03.480Z,30.78
2017-06-20T07:42:13.895Z,30.81
2017-06-20T07:43:24.332Z,30.86
2017-06-20T07:44:34.760Z,30.81
2017-06-20T07:45:44.819Z,30.77
2017-06-20T07:46:54.893Z,30.82
2017-06-20T07:48:05.267Z,30.91
2017-06-20T07:49:15.701Z,30.96
2017-06-20T07:50:26.142Z,31.06
2017-06-20T07:51:36.531Z,31.18
2017-06-20T07:52:46.958Z,31.21
2017-06-20T07:53:58.711Z,31.31
2017-06-20T07:55:10.609Z,31.36
2017-06-20T07:56:20.747Z,31.37
2017-06-20T07:57:31.136Z,31.33
2017-06-20T07:58:41.201Z,31.37
2017-06-20T07:59:51.602Z,31.31
2017-06-20T08:01:01.987Z,31.41
2017-06-20T08:02:12.422Z,31.41
2017-06-20T08:03:22.782Z,31.43
2017-06-20T08:04:33.172Z,31.45
2017-06-20T08:05:43.552Z,31.58
2017-06-20T08:06:53.912Z,31.63
2017-06-20T08:08:03.978Z,31.75
2017-06-20T08:09:14.371Z,31.72
2017-06-20T08:10:24.752Z,31.95
2017-06-20T08:11:34.839Z,31.94
2017-06-20T08:12:44.893Z,32.08
2017-06-20T08:13:54.943Z,32
2017-06-20T08:15:05.308Z,32.1
2017-06-20T08:16:15.709Z,32.23
2017-06-20T08:17:26.087Z,32.23
2017-06-20T08:18:36.456Z,32.17
2017-06-20T08:19:46.875Z,32.16
2017-06-20T08:20:57.242Z,32.15
2017-06-20T08:22:07.618Z,32.2
2017-06-20T08:23:17.996Z,32.3
2017-06-20T08:24:28.030Z,32.24
2017-06-20T08:25:38.440Z,32.35
2017-06-20T08:26:48.184Z,32.35
2017-06-20T08:27:58.257Z,32.34
2017-06-20T08:29:08.306Z,32.46
2017-06-20T08:30:18.682Z,32.47
2017-06-20T08:31:29.106Z,32.47
2017-06-20T08:32:39.468Z,32.5
2017-06-20T08:33:49.522Z,32.5
2017-06-20T08:34:59.867Z,32.59
2017-06-20T08:36:09.899Z,32.54
2017-06-20T08:37:20.014Z,32.59
2017-06-20T08:38:30.375Z,32.57
2017-06-20T08:39:40.423Z,32.65
2017-06-20T08:40:50.522Z,32.69
2017-06-20T08:42:00.644Z,32.72
2017-06-20T08:43:10.714Z,32.74
2017-06-20T08:44:21.102Z,32.72
2017-06-20T08:45:31.470Z,32.69
2017-06-20T08:46:41.839Z,32.83
2017-06-20T08:47:52.222Z,32.84
2017-06-20T08:49:02.658Z,32.98
2017-06-20T08:50:13.041Z,33.01
2017-06-20T08:51:23.423Z,32.99
2017-06-20T08:52:33.489Z,33.05
2017-06-20T08:53:43.847Z,33.16
2017-06-20T08:54:54.262Z,33.12
2017-06-20T08:56:04.318Z,33.26
2017-06-20T08:57:14.108Z,33.32
2017-06-20T08:58:23.930Z,33.36
2017-06-20T08:59:34.331Z,33.47
2017-06-20T09:00:45.067Z,33.52
2017-06-20T09:01:55.437Z,33.5
2017-06-20T09:03:05.483Z,33.52
2017-06-20T09:04:15.308Z,33.61
2017-06-20T09:05:25.663Z,33.63
2017-06-20T09:06:35.763Z,33.74
2017-06-20T09:07:46.153Z,33.9
2017-06-20T09:08:56.548Z,33.89
2017-06-20T09:10:06.900Z,33.96
2017-06-20T09:11:16.990Z,34.11
2017-06-20T09:12:27.037Z,34.11
2017-06-20T09:13:37.102Z,34.03
2017-06-20T09:14:47.138Z,34.05
2017-06-20T09:15:57.495Z,34.1
2017-06-20T09:17:07.868Z,34.11
2017-06-20T09:18:17.919Z,34.15
2017-06-20T09:19:28.279Z,34.22
2017-06-20T09:20:38.330Z,34.27
2017-06-20T09:21:48.408Z,34.3
2017-06-20T09:22:58.773Z,34.34
2017-06-20T09:24:09.228Z,34.3
2017-06-20T09:25:19.609Z,34.32
2017-06-20T09:26:30.024Z,34.33
2017-06-20T09:27:40.078Z,34.34
2017-06-20T09:28:50.430Z,34.41
2017-06-20T09:30:00.782Z,34.26
2017-06-20T09:31:10.836Z,34.3
2017-06-20T09:32:21.214Z,34.34
2017-06-20T09:33:31.597Z,34.46
2017-06-20T09:34:41.954Z,34.41
2017-06-20T09:35:52.385Z,34.51
2017-06-20T09:37:02.750Z,34.58
2017-06-20T09:38:12.799Z,34.66
2017-06-20T09:39:23.178Z,34.77
2017-06-20T09:40:33.567Z,34.79
2017-06-20T09:41:44.003Z,34.69
2017-06-20T09:42:54.381Z,34.69
2017-06-20T09:44:04.761Z,34.74
2017-06-20T09:45:15.114Z,34.75
2017-06-20T09:46:25.486Z,34.81
2017-06-20T09:47:35.902Z,34.83
2017-06-20T09:48:46.281Z,34.79
2017-06-20T09:49:56.651Z,34.83
2017-06-20T09:51:06.716Z,34.87
2017-06-20T09:52:16.767Z,34.96
2017-06-20T09:53:27.196Z,35.04
2017-06-20T09:54:37.568Z,35.15
2017-06-20T09:55:47.946Z,35.28
2017-06-20T09:56:58.308Z,35.18
2017-06-20T09:58:08.671Z,35.23
2017-06-20T09:59:18.473Z,35.26
2017-06-20T10:00:28.847Z,35.31
2017-06-20T10:01:38.902Z,35.34
2017-06-20T10:02:49.305Z,35.28
2017-06-20T10:03:59.718Z,35.39
2017-06-20T10:05:10.148Z,35.38
2017-06-20T10:06:20.552Z,35.49
2017-06-20T10:07:30.926Z,35.47
2017-06-20T10:08:41.311Z,35.52
2017-06-20T10:09:50.425Z,35.55
2017-06-20T10:11:00.548Z,35.67
2017-06-20T10:12:10.587Z,35.84
2017-06-20T10:13:20.630Z,35.84
2017-06-20T10:14:30.728Z,35.95
2017-06-20T10:15:41.109Z,36.06
2017-06-20T10:16:51.817Z,36.15
2017-06-20T10:18:02.191Z,36.06
2017-06-20T10:19:12.563Z,36.08
2017-06-20T10:20:22.948Z,36.21
2017-06-20T10:21:33.326Z,36.08
2017-06-20T10:22:43.438Z,36.15
2017-06-20T10:23:53.487Z,36.09
2017-06-20T10:25:03.868Z,36.06
2017-06-20T10:26:14.244Z,36.05
2017-06-20T10:27:24.533Z,36.05
2017-06-20T10:28:35.279Z,36.05
2017-06-20T10:29:45.665Z,36.05
2017-06-20T10:30:56.053Z,36.09
2017-06-20T10:32:06.440Z,36.06
2017-06-20T10:33:16.785Z,36.15
2017-06-20T10:34:26.873Z,36.24
2017-06-20T10:35:37.279Z,36.33
2017-06-20T10:36:47.386Z,36.47
2017-06-20T10:37:57.783Z,36.43
2017-06-20T10:39:08.155Z,36.44
2017-06-20T10:40:18.571Z,36.67
2017-06-20T10:41:28.949Z,36.65
2017-06-20T10:42:39.326Z,36.63
2017-06-20T10:43:49.697Z,36.73
2017-06-20T10:45:00.085Z,36.81
2017-06-20T10:46:10.118Z,36.8
2017-06-20T10:47:20.488Z,36.8
2017-06-20T10:48:30.857Z,36.7
2017-06-20T10:49:41.222Z,36.77
2017-06-20T10:50:51.315Z,36.84
2017-06-20T10:52:01.377Z,36.78
2017-06-20T10:53:11.156Z,36.75
2017-06-20T10:54:21.537Z,36.74
2017-06-20T10:55:31.902Z,36.96
2017-06-20T10:56:42.328Z,36.99
2017-06-20T10:57:52.683Z,37.02
2017-06-20T10:59:03.058Z,37.11
2017-06-20T11:00:13.440Z,37.3
2017-06-20T11:01:22.868Z,37.26
2017-06-20T11:02:33.251Z,37.34
2017-06-20T11:03:43.616Z,37.48
2017-06-20T11:04:53.988Z,37.48
2017-06-20T11:06:04.042Z,37.54
2017-06-20T11:07:14.418Z,37.51
2017-06-20T11:08:24.519Z,37.57
2017-06-20T11:09:34.886Z,37.66
2017-06-20T11:10:45.256Z,37.69
2017-06-20T11:11:55.291Z,37.69
2017-06-20T11:13:05.341Z,37.8
2017-06-20T11:14:15.773Z,37.83
2017-06-20T11:15:26.131Z,37.9
2017-06-20T11:16:36.500Z,37.88
2017-06-20T11:17:46.547Z,37.87
2017-06-20T11:18:56.595Z,37.86
2017-06-20T11:20:06.342Z,37.93
2017-06-20T11:21:16.705Z,37.99
2017-06-20T11:22:27.094Z,38
2017-06-20T11:23:37.515Z,38.02
2017-06-20T11:24:47.577Z,38.09
2017-06-20T11:25:57.853Z,38.1
2017-06-20T11:27:08.212Z,38.15
2017-06-20T11:28:18.600Z,38.18
2017-06-20T11:29:28.665Z,38.08
2017-06-20T11:30:39.072Z,38.17
2017-06-20T11:31:49.505Z,38.18
2017-06-20T11:32:59.890Z,38.18
2017-06-20T11:34:09.968Z,38.17
2017-06-20T11:35:20.336Z,38.2
2017-06-20T11:36:30.391Z,38.18
2017-06-20T11:37:40.490Z,38.25
2017-06-20T11:38:50.847Z,38.35
2017-06-20T11:40:01.214Z,38.39
2017-06-20T11:41:11.571Z,38.42
2017-06-20T11:42:21.953Z,38.39
2017-06-20T11:43:32.368Z,38.49
2017-06-20T11:44:42.752Z,38.55
2017-06-20T11:45:53.133Z,38.55
2017-06-20T11:47:03.493Z,38.55
2017-06-20T11:48:13.860Z,38.58
2017-06-20T11:49:23.974Z,38.59
2017-06-20T11:50:34.345Z,38.56
2017-06-20T11:51:44.409Z,38.66
2017-06-20T11:52:54.783Z,38.74
2017-06-20T11:54:04.870Z,38.73
2017-06-20T11:55:15.244Z,38.71
2017-06-20T11:56:25.619Z,38.73
2017-06-20T11:57:36.051Z,38.76
2017-06-20T11:58:46.466Z,38.87
2017-06-20T11:59:56.835Z,38.81
2017-06-20T12:01:07.042Z,38.8
2017-06-20T12:02:17.095Z,38.68
2017-06-20T12:03:27.182Z,38.68
2017-06-20T12:04:37.249Z,38.83
2017-06-20T12:05:47.369Z,38.93
2017-06-20T12:06:57.798Z,38.89
2017-06-20T12:08:08.210Z,39.01
2017-06-20T12:09:18.265Z,39.04
2017-06-20T12:10:28.651Z,39.03
2017-06-20T12:11:39.050Z,39.08
2017-06-20T12:12:49.155Z,39.04
2017-06-20T12:13:59.516Z,39
2017-06-20T12:15:09.875Z,39.09
2017-06-20T12:16:19.638Z,39.09
2017-06-20T12:17:30.022Z,39.11
2017-06-20T12:18:40.448Z,39.16
2017-06-20T12:19:50.505Z,39.27
2017-06-20T12:21:00.553Z,39.28
2017-06-20T12:22:10.924Z,39.31
2017-06-20T12:23:21.287Z,39.35
2017-06-20T12:24:31.333Z,39.4
2017-06-20T12:25:41.710Z,39.45
2017-06-20T12:26:52.082Z,39.45
2017-06-20T12:28:02.448Z,39.52
2017-06-20T12:29:12.505Z,39.49
2017-06-20T12:30:22.962Z,39.37
2017-06-20T12:31:33.047Z,39.38
2017-06-20T12:32:42.789Z,39.35
2017-06-20T12:33:52.849Z,39.35
2017-06-20T12:35:03.222Z,39.46
2017-06-20T12:36:13.628Z,39.45
2017-06-20T12:37:24.007Z,39.45
2017-06-20T12:38:34.362Z,39.46
2017-06-20T12:39:44.730Z,39.53
2017-06-20T12:40:55.103Z,39.54
2017-06-20T12:42:05.506Z,39.67
2017-06-20T12:43:15.576Z,39.67
2017-06-20T12:44:25.961Z,39.69
2017-06-20T12:45:36.341Z,39.74
2017-06-20T12:46:46.738Z,39.74
2017-06-20T12:47:57.169Z,39.79
2017-06-20T12:49:07.548Z,39.76
2017-06-20T12:50:17.952Z,39.69
2017-06-20T12:51:28.309Z,39.71
2017-06-20T12:52:38.684Z,39.68
2017-06-20T12:53:49.117Z,39.71
2017-06-20T12:54:59.546Z,39.71
2017-06-20T12:56:09.625Z,39.65
2017-06-20T12:57:20.000Z,39.65
2017-06-20T12:58:30.387Z,39.72
2017-06-20T12:59:40.825Z,39.74
2017-06-20T13:00:50.894Z,39.76
2017-06-20T13:02:01.273Z,39.74
2017-06-20T13:03:11.652Z,39.76
2017-06-20T13:04:22.048Z,39.62
2017-06-20T13:05:32.468Z,39.65
2017-06-20T13:06:42.830Z,39.57
2017-06-20T13:07:53.216Z,39.59
2017-06-20T13:09:03.276Z,39.59
2017-06-20T13:10:13.647Z,39.57
2017-06-20T13:11:23.767Z,39.59
2017-06-20T13:12:34.136Z,39.6
2017-06-20T13:13:43.886Z,39.71
2017-06-20T13:14:54.303Z,39.72
2017-06-20T13:16:04.689Z,39.69
2017-06-20T13:17:15.062Z,39.68
2017-06-20T13:18:25.441Z,39.65
2017-06-20T13:19:35.832Z,39.57
2017-06-20T13:20:45.898Z,39.68
2017-06-20T13:21:56.313Z,39.65
2017-06-20T13:23:06.380Z,39.64
2017-06-20T13:24:16.781Z,39.57
2017-06-20T13:25:26.835Z,39.62
2017-06-20T13:26:37.213Z,39.56
2017-06-20T13:27:47.605Z,39.6
2017-06-20T13:28:57.967Z,39.56
2017-06-20T13:30:08.031Z,39.57
2017-06-20T13:31:18.082Z,39.56
2017-06-20T13:32:28.150Z,39.57
2017-06-20T13:33:38.228Z,39.53
2017-06-20T13:34:48.606Z,39.67
2017-06-20T13:35:58.975Z,39.67
2017-06-20T13:37:09.044Z,39.67
2017-06-20T13:38:19.092Z,39.72
2017-06-20T13:39:29.210Z,39.68
2017-06-20T13:40:39.606Z,39.71
2017-06-20T13:41:49.985Z,39.71
2017-06-20T13:42:59.418Z,39.78
2017-06-20T13:44:09.185Z,39.83
2017-06-20T13:45:19.867Z,39.93
2017-06-20T13:46:29.922Z,39.97
2017-06-20T13:47:40.005Z,39.99
2017-06-20T13:48:50.062Z,39.94
2017-06-20T13:50:00.662Z,39.96
2017-06-20T13:51:10.800Z,39.91
2017-06-20T13:52:21.181Z,39.83
2017-06-20T13:53:31.560Z,39.72
2017-06-20T13:54:41.949Z,39.81
2017-06-20T13:55:52.057Z,39.72
2017-06-20T13:57:02.171Z,39.81
2017-06-20T13:58:12.564Z,39.86
2017-06-20T13:59:22.948Z,39.83
2017-06-20T14:00:32.710Z,39.88
2017-06-20T14:01:42.767Z,39.79
2017-06-20T14:02:53.128Z,39.81
2017-06-20T14:04:03.503Z,39.74
2017-06-20T14:05:13.883Z,39.86
2017-06-20T14:06:23.632Z,39.88
2017-06-20T14:07:33.708Z,39.93
2017-06-20T14:08:43.823Z,39.93
2017-06-20T14:09:54.183Z,39.96
2017-06-20T14:11:04.590Z,39.88
2017-06-20T14:12:14.973Z,39.97
2017-06-20T14:13:25.373Z,39.96
2017-06-20T14:14:35.780Z,39.9
2017-06-20T14:15:46.159Z,39.88
2017-06-20T14:16:56.521Z,39.87
2017-06-20T14:18:06.581Z,39.81
2017-06-20T14:19:16.945Z,39.83
2017-06-20T14:20:27.340Z,39.88
2017-06-20T14:21:37.704Z,39.94
2017-06-20T14:22:48.085Z,39.99
2017-06-20T14:23:58.475Z,39.94
2017-06-20T14:25:08.850Z,39.93
2017-06-20T14:26:19.291Z,39.88
2017-06-20T14:27:29.668Z,39.75
2017-06-20T14:28:40.026Z,39.71
2017-06-20T14:29:49.783Z,39.67
2017-06-20T14:30:59.857Z,39.62
2017-06-20T14:32:10.311Z,39.56
2017-06-20T14:33:20.673Z,39.65
2017-06-20T14:34:31.060Z,39.57
2017-06-20T14:35:41.128Z,39.54
2017-06-20T14:36:51.194Z,39.56
2017-06-20T14:38:01.305Z,39.67
2017-06-20T14:39:11.680Z,39.65
2017-06-20T14:40:21.728Z,39.67
2017-06-20T14:41:32.094Z,39.59
2017-06-20T14:42:42.448Z,39.53
2017-06-20T14:43:52.868Z,39.67
2017-06-20T14:45:02.917Z,39.53
2017-06-20T14:46:12.972Z,39.45
2017-06-20T14:47:23.556Z,39.5
2017-06-20T14:48:33.664Z,39.52
2017-06-20T14:49:44.104Z,39.35
2017-06-20T14:50:54.160Z,39.52
2017-06-20T14:52:04.530Z,39.42
2017-06-20T14:53:14.917Z,39.47
2017-06-20T14:54:25.279Z,39.46
2017-06-20T14:55:35.022Z,39.46
2017-06-20T14:56:45.082Z,39.46
2017-06-20T14:57:55.138Z,39.37
2017-06-20T14:59:05.197Z,39.52
2017-06-20T15:00:15.550Z,39.4
2017-06-20T15:01:25.981Z,39.38
2017-06-20T15:02:36.359Z,39.5
2017-06-20T15:03:46.411Z,39.53
2017-06-20T15:04:56.778Z,39.49
2017-06-20T15:06:07.151Z,39.47
2017-06-20T15:07:17.300Z,39.53
2017-06-20T15:08:27.675Z,39.45
2017-06-20T15:09:38.061Z,39.38
2017-06-20T15:10:48.112Z,39.37
2017-06-20T15:11:58.479Z,39.35
2017-06-20T15:13:08.909Z,39.34
2017-06-20T15:14:18.665Z,39.28
2017-06-20T15:15:28.733Z,39.22
2017-06-20T15:16:39.039Z,39.22
2017-06-20T15:17:49.408Z,39.3
2017-06-20T15:18:59.846Z,39.22
2017-06-20T15:20:09.913Z,39.27
2017-06-20T15:21:20.269Z,39.23
2017-06-20T15:22:30.659Z,39.23
2017-06-20T15:23:41.027Z,39.22
2017-06-20T15:24:50.863Z,39.23
2017-06-20T15:26:00.626Z,39.23
2017-06-20T15:27:10.700Z,39.19
2017-06-20T15:28:21.088Z,39.18
2017-06-20T15:29:31.159Z,39.19
2017-06-20T15:30:40.951Z,39.2
2017-06-20T15:31:51.031Z,39.22
2017-06-20T15:33:01.118Z,39.3
2017-06-20T15:34:11.168Z,39.25
2017-06-20T15:35:21.535Z,39.23
2017-06-20T15:36:31.951Z,39.28
2017-06-20T15:37:42.347Z,39.28
2017-06-20T15:38:52.413Z,39.23